createdAt,value
2022-10-19T00:00:31.094Z,20.00
2022-10-19T00:02:57.694Z,20.00
2022-10-19T00:05:24.403Z,20.40
2022-10-19T00:07:51.022Z,20.00
2022-10-19T00:10:17.695Z,20.00
2022-10-19T00:12:44.398Z,20.00
2022-10-19T00:15:11.193Z,20.00
2022-10-19T00:17:37.790Z,20.00
2022-10-19T00:20:04.656Z,20.20
2022-10-19T00:22:31.631Z,20.00
2022-10-19T00:24:58.720Z,20.00
2022-10-19T00:27:25.351Z,20.00
2022-10-19T00:29:52.054Z,20.00
2022-10-19T00:32:18.686Z,20.00
2022-10-19T00:34:45.466Z,20.00
2022-10-19T00:37:12.211Z,20.00
2022-10-19T00:39:39.146Z,20.00
2022-10-19T00:42:06.114Z,19.90
2022-10-19T00:44:32.752Z,20.00
2022-10-19T00:47:04.738Z,20.00
2022-10-19T00:49:34.031Z,19.90
2022-10-19T00:52:08.787Z,19.90
2022-10-19T00:54:37.078Z,19.90
2022-10-19T00:57:04.201Z,19.90
2022-10-19T00:59:31.891Z,19.90
2022-10-19T01:01:58.835Z,19.90
2022-10-19T01:04:26.313Z,19.90
2022-10-19T01:06:54.043Z,19.90
2022-10-19T01:09:20.762Z,19.90
2022-10-19T01:11:50.250Z,19.90
2022-10-19T01:14:16.980Z,19.90
2022-10-19T01:16:48.440Z,19.90
2022-10-19T01:19:39.551Z,19.90
2022-10-19T01:22:16.301Z,19.90
2022-10-19T01:24:51.977Z,19.90
2022-10-19T01:27:18.620Z,19.90
2022-10-19T01:30:02.702Z,19.90
2022-10-19T01:32:38.329Z,19.90
2022-10-19T01:35:07.240Z,19.90
2022-10-19T01:37:52.333Z,19.90
2022-10-19T01:40:21.963Z,19.90
2022-10-19T01:42:58.625Z,19.90
2022-10-19T01:45:28.949Z,19.90
2022-10-19T01:47:58.501Z,19.90
2022-10-19T01:50:38.362Z,19.90
2022-10-19T01:53:06.282Z,19.90
2022-10-19T01:55:33.653Z,19.90
2022-10-19T01:58:08.310Z,19.90
2022-10-19T02:00:38.652Z,19.90
2022-10-19T02:03:06.051Z,19.90
2022-10-19T02:05:33.481Z,19.90
2022-10-19T02:08:02.746Z,19.80
2022-10-19T02:10:30.292Z,19.80
2022-10-19T02:12:58.323Z,19.80
2022-10-19T02:15:26.305Z,19.80
2022-10-19T02:17:56.867Z,19.80
2022-10-19T02:20:23.794Z,19.80
2022-10-19T02:22:50.662Z,19.80
2022-10-19T02:25:17.399Z,19.80
2022-10-19T02:27:44.649Z,19.80
2022-10-19T02:30:12.780Z,19.80
2022-10-19T02:32:39.439Z,19.80
2022-10-19T02:35:06.352Z,19.80
2022-10-19T02:37:33.238Z,19.80
2022-10-19T02:40:00.641Z,19.80
2022-10-19T02:42:28.726Z,19.80
2022-10-19T02:45:01.695Z,19.80
2022-10-19T02:47:33.945Z,19.80
2022-10-19T02:50:01.114Z,19.80
2022-10-19T02:52:27.750Z,19.80
2022-10-19T02:54:54.335Z,19.80
2022-10-19T02:57:22.464Z,19.80
2022-10-19T02:59:49.361Z,19.80
2022-10-19T03:02:16.615Z,19.80
2022-10-19T03:04:44.767Z,19.80
2022-10-19T03:07:16.014Z,19.80
2022-10-19T03:09:43.291Z,19.80
2022-10-19T03:12:10.421Z,19.80
2022-10-19T03:14:37.051Z,19.80
2022-10-19T03:17:04.012Z,19.80
2022-10-19T03:19:30.910Z,19.80
2022-10-19T03:21:57.658Z,19.80
2022-10-19T03:24:24.310Z,19.80
2022-10-19T03:26:51.071Z,19.80
2022-10-19T03:29:17.729Z,19.80
2022-10-19T03:31:44.392Z,19.80
2022-10-19T03:34:11.044Z,19.80
2022-10-19T03:36:38.970Z,19.80
2022-10-19T03:39:07.379Z,19.90
2022-10-19T03:41:35.398Z,19.80
2022-10-19T03:44:02.226Z,19.80
2022-10-19T03:46:29.111Z,19.80
2022-10-19T03:48:55.960Z,19.80
2022-10-19T03:51:26.819Z,19.80
2022-10-19T03:53:54.623Z,19.80
2022-10-19T03:56:22.416Z,19.90
2022-10-19T03:58:49.733Z,19.90
2022-10-19T04:01:22.040Z,19.90
2022-10-19T04:03:52.793Z,19.90
2022-10-19T04:06:22.022Z,19.90
2022-10-19T04:08:49.239Z,19.90
2022-10-19T04:11:16.414Z,19.90
2022-10-19T04:13:43.139Z,19.90
2022-10-19T04:16:13.366Z,19.90
2022-10-19T04:18:40.047Z,19.90
2022-10-19T04:21:07.243Z,19.90
2022-10-19T04:23:35.108Z,19.90
2022-10-19T04:26:06.494Z,19.90
2022-10-19T04:28:34.334Z,19.90
2022-10-19T04:31:04.507Z,19.90
2022-10-19T04:33:31.545Z,19.90
2022-10-19T04:35:58.952Z,20.00
2022-10-19T04:38:26.035Z,20.00
2022-10-19T04:40:52.781Z,19.90
2022-10-19T04:43:19.502Z,19.90
2022-10-19T04:45:46.084Z,19.90
2022-10-19T04:48:15.036Z,19.90
2022-10-19T04:50:42.071Z,19.90
2022-10-19T04:53:08.684Z,19.90
2022-10-19T04:55:39.872Z,20.10
2022-10-19T04:58:06.508Z,19.90
2022-10-19T05:00:33.179Z,19.90
2022-10-19T05:02:59.820Z,19.90
2022-10-19T05:05:26.782Z,19.90
2022-10-19T05:07:53.434Z,20.00
2022-10-19T05:10:20.131Z,20.00
2022-10-19T05:12:46.783Z,20.00
2022-10-19T05:15:13.411Z,20.00
2022-10-19T05:17:40.035Z,20.00
2022-10-19T05:20:07.027Z,20.00
2022-10-19T05:22:33.672Z,20.00
2022-10-19T05:25:00.349Z,20.00
2022-10-19T05:27:27.082Z,19.90
2022-10-19T05:29:53.700Z,19.90
2022-10-19T05:32:20.332Z,19.90
2022-10-19T05:34:47.022Z,20.00
2022-10-19T05:37:13.783Z,19.90
2022-10-19T05:39:40.465Z,19.90
2022-10-19T05:42:07.091Z,19.90
2022-10-19T05:44:33.836Z,19.90
2022-10-19T05:47:00.632Z,19.90
2022-10-19T05:49:27.255Z,20.10
2022-10-19T05:51:54.082Z,20.00
2022-10-19T05:54:22.721Z,20.00
2022-10-19T05:56:51.687Z,20.00
2022-10-19T05:59:19.394Z,20.00
2022-10-19T06:01:46.514Z,20.00
2022-10-19T06:04:14.963Z,20.00
2022-10-19T06:06:42.272Z,20.00
2022-10-19T06:09:09.347Z,19.90
2022-10-19T06:11:37.440Z,20.00
2022-10-19T06:14:05.169Z,19.90
2022-10-19T06:16:32.286Z,19.90
2022-10-19T06:18:59.426Z,19.90
2022-10-19T06:21:27.622Z,19.90
2022-10-19T06:23:55.252Z,19.90
2022-10-19T06:26:21.941Z,19.90
2022-10-19T06:28:49.338Z,19.90
2022-10-19T06:31:16.163Z,19.90
2022-10-19T06:33:44.928Z,19.90
2022-10-19T06:36:13.891Z,20.00
2022-10-19T06:38:40.641Z,20.00
2022-10-19T06:41:07.361Z,19.90
2022-10-19T06:43:34.401Z,19.90
2022-10-19T06:46:08.492Z,19.90
2022-10-19T06:48:35.218Z,19.90
2022-10-19T06:51:06.155Z,19.90
2022-10-19T06:53:34.424Z,19.90
2022-10-19T06:56:02.079Z,19.90
2022-10-19T06:58:28.710Z,19.90
2022-10-19T07:00:57.235Z,19.90
2022-10-19T07:03:24.760Z,19.90
2022-10-19T07:05:55.104Z,19.90
2022-10-19T07:08:22.085Z,19.90
2022-10-19T07:10:52.598Z,19.90
2022-10-19T07:13:19.815Z,20.20
2022-10-19T07:15:46.620Z,19.90
2022-10-19T07:18:13.409Z,19.90
2022-10-19T07:20:40.026Z,19.90
2022-10-19T07:23:07.071Z,20.00
2022-10-19T07:25:33.919Z,19.90
2022-10-19T07:28:00.622Z,19.90
2022-10-19T07:30:27.298Z,19.90
2022-10-19T07:32:54.008Z,19.90
2022-10-19T07:35:20.606Z,19.90
2022-10-19T07:37:47.347Z,19.90
2022-10-19T07:40:14.035Z,19.90
2022-10-19T07:42:40.690Z,19.90
2022-10-19T07:45:07.443Z,19.90
2022-10-19T07:47:34.546Z,19.90
2022-10-19T07:50:01.470Z,19.90
2022-10-19T07:52:29.134Z,19.90
2022-10-19T07:54:56.479Z,19.90
2022-10-19T07:57:23.111Z,20.00
2022-10-19T07:59:49.727Z,19.90
2022-10-19T08:02:17.077Z,19.90
2022-10-19T08:05:02.766Z,19.80
2022-10-19T08:07:32.846Z,19.90
2022-10-19T08:09:59.494Z,19.90
2022-10-19T08:12:26.179Z,19.90
2022-10-19T08:14:53.633Z,19.90
2022-10-19T08:17:20.326Z,19.90
2022-10-19T08:19:47.144Z,19.90
2022-10-19T08:22:13.826Z,19.90
2022-10-19T08:24:40.422Z,19.90
2022-10-19T08:27:07.084Z,19.90
2022-10-19T08:29:33.714Z,19.90
2022-10-19T08:32:00.396Z,19.90
2022-10-19T08:34:27.012Z,19.90
2022-10-19T08:36:53.754Z,19.90
2022-10-19T08:39:20.485Z,19.90
2022-10-19T08:41:50.374Z,19.90
2022-10-19T08:44:19.795Z,19.90
2022-10-19T08:46:55.642Z,19.90
2022-10-19T08:49:23.646Z,19.90
2022-10-19T08:51:56.136Z,19.90
2022-10-19T08:54:23.476Z,19.90
2022-10-19T08:57:11.048Z,19.90
2022-10-19T08:59:42.826Z,19.90
2022-10-19T09:02:28.166Z,19.90
2022-10-19T09:04:58.387Z,19.90
2022-10-19T09:07:29.439Z,19.90
2022-10-19T09:10:10.386Z,19.90
2022-10-19T09:12:39.979Z,19.90
2022-10-19T09:15:10.983Z,19.90
2022-10-19T09:17:37.619Z,19.90
2022-10-19T09:20:18.211Z,20.00
2022-10-19T09:22:45.973Z,19.90
2022-10-19T09:25:20.261Z,19.90
2022-10-19T09:27:53.258Z,19.90
2022-10-19T09:30:21.591Z,19.80
2022-10-19T09:33:02.498Z,19.90
2022-10-19T09:35:32.045Z,19.90
2022-10-19T09:37:59.375Z,19.90
2022-10-19T09:40:27.645Z,19.90
2022-10-19T09:42:58.519Z,19.90
2022-10-19T09:45:31.056Z,19.90
2022-10-19T09:48:04.546Z,19.90
2022-10-19T09:50:35.435Z,19.90
2022-10-19T09:53:05.752Z,19.90
2022-10-19T09:55:39.546Z,19.90
2022-10-19T09:58:15.396Z,19.90
2022-10-19T10:00:43.344Z,19.90
2022-10-19T10:03:28.506Z,20.00
2022-10-19T10:05:56.452Z,19.90
2022-10-19T10:08:25.666Z,19.90
2022-10-19T10:11:09.213Z,19.90
2022-10-19T10:13:36.675Z,19.90
2022-10-19T10:16:04.792Z,19.90
2022-10-19T10:18:31.646Z,19.90
2022-10-19T10:21:05.886Z,19.90
2022-10-19T10:23:36.386Z,20.00
2022-10-19T10:26:04.051Z,19.90
2022-10-19T10:28:31.176Z,19.90
2022-10-19T10:31:03.410Z,19.90
2022-10-19T10:33:44.290Z,19.90
2022-10-19T10:36:11.852Z,19.90
2022-10-19T10:38:50.122Z,19.90
2022-10-19T10:41:23.211Z,19.90
2022-10-19T10:43:57.445Z,19.90
2022-10-19T10:46:27.291Z,19.90
2022-10-19T10:48:58.287Z,19.90
2022-10-19T10:51:34.099Z,19.90
2022-10-19T10:54:27.165Z,19.90
2022-10-19T10:57:05.585Z,19.90
2022-10-19T10:59:43.113Z,19.90
2022-10-19T11:04:56.262Z,19.90
2022-10-19T11:07:24.620Z,19.90
2022-10-19T11:09:56.642Z,20.00
2022-10-19T11:12:36.348Z,19.90
2022-10-19T11:15:06.203Z,19.90
2022-10-19T11:17:34.156Z,19.70
2022-10-19T11:20:01.030Z,19.90
2022-10-19T11:22:28.536Z,19.90
2022-10-19T11:24:57.894Z,19.90
2022-10-19T11:27:27.539Z,19.90
2022-10-19T11:30:02.125Z,19.90
2022-10-19T11:32:47.495Z,19.90
2022-10-19T11:35:23.272Z,19.90
2022-10-19T11:38:18.350Z,19.90
2022-10-19T11:41:18.800Z,20.00
2022-10-19T11:43:56.170Z,20.00
2022-10-19T11:46:28.915Z,20.00
2022-10-19T11:49:01.521Z,20.00
2022-10-19T11:51:52.000Z,20.00
2022-10-19T11:54:37.174Z,20.00
2022-10-19T11:57:13.248Z,20.00
2022-10-19T11:59:47.460Z,19.90
2022-10-19T12:02:23.404Z,19.90
2022-10-19T12:05:04.718Z,19.90
2022-10-19T12:07:53.838Z,19.90
2022-10-19T12:10:20.466Z,19.90
2022-10-19T12:12:52.135Z,19.90
2022-10-19T12:15:48.230Z,19.90
2022-10-19T12:18:14.834Z,19.90
2022-10-19T12:20:46.939Z,19.90
2022-10-19T12:23:31.076Z,19.90
2022-10-19T12:25:59.093Z,20.00
2022-10-19T12:28:27.860Z,20.00
2022-10-19T12:30:55.431Z,20.00
2022-10-19T12:33:22.057Z,20.00
2022-10-19T12:36:07.776Z,20.00
2022-10-19T12:38:46.059Z,20.00
2022-10-19T12:41:27.339Z,20.00
2022-10-19T12:44:14.337Z,20.00
2022-10-19T12:46:45.227Z,20.00
2022-10-19T12:49:29.067Z,19.90
2022-10-19T12:51:57.090Z,19.90
2022-10-19T12:54:25.114Z,20.30
2022-10-19T12:56:53.685Z,19.90
2022-10-19T12:59:23.796Z,19.90
2022-10-19T13:01:51.413Z,19.90
2022-10-19T13:04:19.687Z,19.90
2022-10-19T13:06:49.401Z,20.20
2022-10-19T13:09:35.950Z,19.90
2022-10-19T13:12:22.000Z,19.90
2022-10-19T13:15:01.627Z,20.00
2022-10-19T13:17:34.583Z,20.00
2022-10-19T13:20:13.468Z,20.00
2022-10-19T13:22:50.463Z,20.00
2022-10-19T13:25:17.304Z,20.00
2022-10-19T13:27:44.364Z,20.00
2022-10-19T13:30:29.917Z,19.90
2022-10-19T13:32:56.631Z,19.90
2022-10-19T13:35:26.303Z,19.90
2022-10-19T13:38:11.209Z,19.90
2022-10-19T13:40:38.649Z,19.90
2022-10-19T13:43:05.332Z,19.90
2022-10-19T13:45:31.991Z,19.90
2022-10-19T13:48:03.778Z,19.90
2022-10-19T13:50:43.654Z,19.90
2022-10-19T13:53:29.321Z,20.00
2022-10-19T13:55:59.577Z,20.00
2022-10-19T13:58:38.281Z,20.00
2022-10-19T14:01:04.911Z,20.00
2022-10-19T14:03:49.474Z,20.00
2022-10-19T14:06:37.414Z,19.90
2022-10-19T14:09:07.683Z,19.90
2022-10-19T14:11:36.174Z,19.90
2022-10-19T14:14:09.032Z,19.90
2022-10-19T14:16:44.596Z,19.90
2022-10-19T14:19:19.522Z,19.90
2022-10-19T14:21:46.146Z,19.90
2022-10-19T14:24:20.156Z,19.90
2022-10-19T14:26:47.406Z,19.90
2022-10-19T14:29:14.057Z,19.90
2022-10-19T14:31:40.771Z,20.00
2022-10-19T14:34:08.463Z,20.10
2022-10-19T14:36:37.257Z,19.90
2022-10-19T14:39:04.384Z,20.10
2022-10-19T14:41:38.172Z,20.00
2022-10-19T14:44:25.079Z,20.00
2022-10-19T14:46:54.489Z,20.10
2022-10-19T14:49:21.171Z,20.20
2022-10-19T14:51:55.986Z,20.40
2022-10-19T14:54:32.502Z,20.40
2022-10-19T14:57:01.312Z,20.40
2022-10-19T14:59:31.166Z,20.40
2022-10-19T15:01:59.798Z,20.40
2022-10-19T15:04:34.400Z,20.60
2022-10-19T15:07:03.082Z,20.30
2022-10-19T15:09:37.767Z,20.30
2022-10-19T15:12:15.770Z,20.20
2022-10-19T15:14:42.784Z,20.90
2022-10-19T15:17:23.554Z,20.20
2022-10-19T15:19:50.189Z,20.20
2022-10-19T15:22:16.815Z,20.20
2022-10-19T15:25:02.413Z,20.20
2022-10-19T15:27:33.431Z,20.20
2022-10-19T15:30:02.667Z,20.20
2022-10-19T15:32:36.916Z,20.30
2022-10-19T15:35:12.011Z,20.20
2022-10-19T15:37:44.326Z,20.20
2022-10-19T15:40:26.184Z,20.10
2022-10-19T15:42:52.883Z,20.10
2022-10-19T15:45:38.456Z,19.90
2022-10-19T15:48:11.156Z,20.10
2022-10-19T15:50:39.829Z,20.20
2022-10-19T15:53:10.713Z,20.20
2022-10-19T15:55:37.656Z,20.10
2022-10-19T15:58:04.342Z,20.10
2022-10-19T16:00:34.163Z,20.10
2022-10-19T16:03:00.851Z,20.10
2022-10-19T16:05:27.668Z,20.20
2022-10-19T16:07:54.570Z,20.10
2022-10-19T16:10:22.772Z,20.80
2022-10-19T16:12:49.543Z,20.00
2022-10-19T16:15:19.841Z,20.40
2022-10-19T16:17:47.231Z,20.00
2022-10-19T16:20:13.886Z,20.30
2022-10-19T16:22:40.520Z,20.00
2022-10-19T16:25:07.328Z,20.00
2022-10-19T16:27:34.187Z,20.00
2022-10-19T16:30:01.040Z,20.00
2022-10-19T16:32:27.655Z,20.10
2022-10-19T16:34:54.247Z,20.00
2022-10-19T16:37:20.883Z,20.00
2022-10-19T16:39:47.498Z,20.00
2022-10-19T16:42:14.163Z,20.00
2022-10-19T16:44:40.775Z,20.00
2022-10-19T16:47:07.411Z,20.10
2022-10-19T16:49:34.019Z,20.10
2022-10-19T16:52:01.665Z,20.10
2022-10-19T16:54:30.046Z,20.00
2022-10-19T16:56:56.714Z,20.00
2022-10-19T16:59:23.359Z,20.00
2022-10-19T17:01:50.557Z,20.00
2022-10-19T17:04:18.113Z,20.00
2022-10-19T17:06:44.818Z,20.00
2022-10-19T17:09:37.060Z,20.00
2022-10-19T17:11:58.051Z,20.00
2022-10-19T17:14:24.739Z,20.00
2022-10-19T17:16:51.382Z,20.00
2022-10-19T17:19:18.823Z,20.00
2022-10-19T17:21:45.488Z,20.00
2022-10-19T17:24:16.953Z,20.00
2022-10-19T17:26:46.882Z,20.10
2022-10-19T17:29:13.731Z,20.00
2022-10-19T17:31:40.862Z,20.00
2022-10-19T17:34:08.443Z,20.00
2022-10-19T17:39:07.291Z,19.90
2022-10-19T17:41:33.943Z,19.90
2022-10-19T17:44:00.579Z,19.90
2022-10-19T17:46:29.049Z,19.90
2022-10-19T17:48:56.719Z,19.90
2022-10-19T17:51:24.613Z,19.90
2022-10-19T17:53:51.577Z,20.00
2022-10-19T17:56:19.692Z,19.90
2022-10-19T17:58:46.742Z,20.00
2022-10-19T18:01:14.012Z,20.40
2022-10-19T18:03:40.755Z,20.00
2022-10-19T18:06:12.103Z,19.90
2022-10-19T18:08:40.146Z,19.90
2022-10-19T18:11:11.070Z,19.90
2022-10-19T18:16:20.252Z,19.90
2022-10-19T18:18:51.833Z,20.00
2022-10-19T18:21:20.473Z,19.90
2022-10-19T18:23:47.929Z,19.90
2022-10-19T18:26:19.780Z,20.00
2022-10-19T18:28:46.585Z,19.90
2022-10-19T18:31:14.516Z,19.90
2022-10-19T18:33:41.433Z,19.90
2022-10-19T18:36:09.226Z,20.20
2022-10-19T18:38:36.190Z,19.90
2022-10-19T18:41:05.648Z,19.90
2022-10-19T18:43:32.810Z,19.90
2022-10-19T18:46:00.391Z,19.90
2022-10-19T18:48:28.316Z,19.90
2022-10-19T18:50:55.276Z,19.90
2022-10-19T18:53:21.946Z,20.20
2022-10-19T18:56:05.724Z,19.80
2022-10-19T18:58:32.515Z,19.90
2022-10-19T19:01:07.098Z,19.90
2022-10-19T19:03:33.916Z,19.90
2022-10-19T19:06:04.599Z,19.90
2022-10-19T19:08:31.452Z,19.90
2022-10-19T19:11:08.812Z,19.90
2022-10-19T19:13:35.441Z,20.10
2022-10-19T19:16:02.118Z,20.30
2022-10-19T19:18:29.243Z,19.80
2022-10-19T19:20:55.873Z,20.00
2022-10-19T19:23:22.500Z,19.90
2022-10-19T19:25:49.159Z,19.80
2022-10-19T19:28:15.804Z,19.80
2022-10-19T19:30:43.559Z,19.80
2022-10-19T19:33:10.575Z,19.80
2022-10-19T19:35:44.188Z,19.90
2022-10-19T19:38:11.209Z,19.80
2022-10-19T19:40:41.851Z,19.80
2022-10-19T19:43:09.105Z,19.80
2022-10-19T19:45:36.177Z,20.10
2022-10-19T19:48:02.994Z,19.80
2022-10-19T19:50:30.061Z,19.80
2022-10-19T19:52:58.450Z,19.80
2022-10-19T19:55:25.234Z,19.70
2022-10-19T19:57:54.092Z,19.80
2022-10-19T20:00:21.300Z,19.50
2022-10-19T20:02:54.672Z,19.70
2022-10-19T20:05:21.783Z,19.70
2022-10-19T20:07:48.458Z,19.70
2022-10-19T20:10:16.227Z,19.70
2022-10-19T20:12:43.582Z,19.70
2022-10-19T20:15:10.659Z,19.70
2022-10-19T20:17:38.260Z,19.70
2022-10-19T20:20:05.774Z,19.70
2022-10-19T20:22:32.452Z,19.70
2022-10-19T20:24:59.130Z,20.20
2022-10-19T20:27:25.994Z,19.60
2022-10-19T20:29:58.319Z,19.60
2022-10-19T20:32:25.463Z,19.60
2022-10-19T20:34:52.306Z,19.70
2022-10-19T20:37:19.590Z,19.60
2022-10-19T20:39:46.723Z,19.70
2022-10-19T20:42:17.620Z,19.60
2022-10-19T20:44:45.559Z,19.60
2022-10-19T20:47:12.204Z,19.60
2022-10-19T20:49:38.829Z,19.60
2022-10-19T20:52:05.539Z,19.60
2022-10-19T20:54:32.605Z,19.50
2022-10-19T20:56:59.478Z,19.60
2022-10-19T20:59:27.740Z,19.50
2022-10-19T21:01:56.162Z,19.50
2022-10-19T21:04:23.748Z,19.60
2022-10-19T21:06:50.719Z,19.50
2022-10-19T21:09:21.408Z,19.40
2022-10-19T21:11:50.172Z,19.50
2022-10-19T21:14:23.760Z,19.50
2022-10-19T21:16:53.970Z,19.50
2022-10-19T21:19:22.160Z,19.50
2022-10-19T21:21:50.428Z,19.50
2022-10-19T21:24:21.798Z,19.50
2022-10-19T21:26:48.535Z,19.50
2022-10-19T21:29:15.679Z,19.40
2022-10-19T21:31:46.447Z,19.40
2022-10-19T21:34:17.391Z,19.40
2022-10-19T21:36:44.215Z,19.40
2022-10-19T21:39:11.081Z,19.40
2022-10-19T21:41:37.864Z,19.60
2022-10-19T21:44:04.621Z,19.40
2022-10-19T21:46:31.385Z,19.40
2022-10-19T21:48:58.259Z,19.40
2022-10-19T21:51:24.997Z,19.40
2022-10-19T21:53:51.651Z,19.40
2022-10-19T21:56:18.368Z,19.40
2022-10-19T21:58:50.969Z,19.40
2022-10-19T22:01:18.102Z,19.40
2022-10-19T22:03:44.927Z,19.40
2022-10-19T22:06:11.979Z,19.40
2022-10-19T22:08:39.487Z,19.40
2022-10-19T22:11:06.820Z,19.40
2022-10-19T22:13:34.062Z,19.40
2022-10-19T22:16:07.996Z,19.40
2022-10-19T22:18:34.790Z,19.50
2022-10-19T22:21:03.393Z,19.60
2022-10-19T22:23:30.066Z,19.60
2022-10-19T22:25:57.010Z,19.70
2022-10-19T22:28:23.892Z,19.80
2022-10-19T22:30:54.835Z,19.80
2022-10-19T22:33:22.392Z,19.80
2022-10-19T22:35:56.454Z,19.80
2022-10-19T22:38:23.263Z,19.80
2022-10-19T22:40:49.931Z,19.80
2022-10-19T22:43:17.673Z,19.80
2022-10-19T22:45:46.993Z,19.80
2022-10-19T22:48:13.931Z,19.70
2022-10-19T22:50:40.596Z,19.70
2022-10-19T22:53:07.308Z,19.70
2022-10-19T22:55:34.015Z,19.80
2022-10-19T22:58:00.718Z,19.80
2022-10-19T23:00:27.519Z,19.60
2022-10-19T23:02:54.236Z,19.60
2022-10-19T23:05:20.960Z,19.60
2022-10-19T23:07:47.663Z,19.60
2022-10-19T23:10:14.375Z,20.20
2022-10-19T23:12:41.114Z,19.60
2022-10-19T23:15:08.205Z,20.40
2022-10-19T23:17:35.115Z,19.60
2022-10-19T23:20:01.937Z,19.70
2022-10-19T23:22:29.668Z,19.60
2022-10-19T23:24:56.350Z,19.60
2022-10-19T23:27:23.004Z,19.30
2022-10-19T23:29:49.725Z,19.60
2022-10-19T23:32:16.420Z,19.90
2022-10-19T23:34:44.617Z,19.60
2022-10-19T23:37:14.556Z,19.50
2022-10-19T23:39:41.255Z,19.80
2022-10-19T23:42:07.941Z,19.20
2022-10-19T23:44:34.626Z,19.60
2022-10-19T23:47:01.253Z,20.00
2022-10-19T23:49:27.895Z,19.50
2022-10-19T23:51:54.579Z,19.50
2022-10-19T23:54:21.305Z,19.50
2022-10-19T23:56:48.040Z,19.50
2022-10-19T23:59:14.725Z,19.50
